Time;durP1;ratioP1;P1;durP2;ratioP2;P2;SDS_P1;SDS_P2;PMS_P1;PMS_P2;Temp;Humidity;BMP_temperature;BMP_pressure;BME280_temperature;BME280_humidity;BME280_pressure;Samples;Min_cycle;Max_cycle;Signal;HPM_P1;HPM_P2
2022/04/05 00:00:27;;;;;;;13.52;1.70;;;7.30;99.90;;;;;;5048967;28;20045;-65
2022/04/05 00:02:52;;;;;;;9.02;1.73;;;7.40;99.90;;;;;;5041520;28;20124;-68
2022/04/05 00:05:18;;;;;;;9.25;1.88;;;7.20;99.90;;;;;;5046363;28;20033;-68
2022/04/05 00:07:44;;;;;;;11.25;2.35;;;7.20;99.90;;;;;;5064905;28;20048;-66
2022/04/05 00:10:10;;;;;;;5.50;2.25;;;7.20;99.90;;;;;;5062872;28;20399;-69
2022/04/05 00:12:35;;;;;;;11.25;2.70;;;7.30;99.90;;;;;;5058691;28;20044;-68
2022/04/05 00:15:01;;;;;;;7.75;2.40;;;7.10;99.90;;;;;;5055924;28;20455;-68
2022/04/05 00:17:27;;;;;;;17.30;3.20;;;7.40;99.90;;;;;;5043131;28;20044;-69
2022/04/05 00:19:52;;;;;;;12.27;2.90;;;7.40;99.90;;;;;;5053111;28;20123;-68
2022/04/05 00:22:18;;;;;;;16.95;3.33;;;7.30;99.90;;;;;;5053526;28;20044;-67
2022/04/05 00:24:43;;;;;;;11.18;2.65;;;7.10;99.90;;;;;;5052574;28;20496;-67
2022/04/05 00:27:09;;;;;;;15.52;3.25;;;7.20;99.90;;;;;;5051926;28;20133;-68
2022/04/05 00:29:34;;;;;;;12.88;2.20;;;7.00;99.90;;;;;;5051120;28;20116;-67
2022/04/05 00:32:00;;;;;;;14.75;3.60;;;7.10;99.90;;;;;;5065920;28;20035;-70
2022/04/05 00:34:25;;;;;;;12.63;3.35;;;6.90;99.90;;;;;;5066340;28;20087;-67
2022/04/05 00:36:52;;;;;;;11.60;2.53;;;7.10;99.90;;;;;;5051148;28;20045;-68
2022/04/05 00:39:19;;;;;;;10.55;2.47;;;6.90;99.90;;;;;;5065981;28;20033;-68
2022/04/05 00:41:44;;;;;;;12.07;2.92;;;6.90;99.90;;;;;;5054457;28;20060;-67
2022/04/05 00:44:10;;;;;;;8.98;3.13;;;7.20;99.90;;;;;;5052924;28;20063;-68
2022/04/05 00:46:35;;;;;;;9.30;2.33;;;6.90;99.90;;;;;;5049934;28;20037;-67
2022/04/05 00:49:01;;;;;;;10.57;3.03;;;6.90;99.90;;;;;;5064496;28;20118;-68
2022/04/05 00:51:27;;;;;;;7.25;1.95;;;7.00;99.90;;;;;;5050914;28;20135;-65
2022/04/05 00:53:55;;;;;;;7.53;1.92;;;7.20;99.90;;;;;;5055409;28;20136;-67
2022/04/05 00:56:22;;;;;;;8.30;2.05;;;7.20;99.90;;;;;;5049449;28;20076;-66
2022/04/05 00:58:50;;;;;;;12.38;2.30;;;7.10;99.90;;;;;;5038565;28;20494;-65
2022/04/05 01:01:18;;;;;;;9.65;1.90;;;6.90;99.90;;;;;;5066606;28;20423;-65
2022/04/05 01:03:53;;;;;;;12.40;2.15;;;7.10;99.90;;;;;;5048551;28;20048;-68
2022/04/05 01:06:23;;;;;;;11.52;2.17;;;7.20;99.90;;;;;;5045113;28;20079;-68
2022/04/05 01:08:49;;;;;;;11.57;1.95;;;6.90;99.90;;;;;;5031399;28;20075;-68
2022/04/05 01:11:15;;;;;;;7.75;1.63;;;7.20;99.90;;;;;;5050199;28;20131;-67
2022/04/05 01:13:42;;;;;;;12.43;2.08;;;7.10;99.90;;;;;;5060027;28;20036;-65
2022/04/05 01:16:10;;;;;;;7.38;1.38;;;7.10;99.90;;;;;;5048974;28;20407;-65
2022/04/05 01:18:36;;;;;;;8.60;1.58;;;6.80;99.90;;;;;;5049561;28;20041;-67
2022/04/05 01:21:02;;;;;;;7.00;1.63;;;6.80;99.90;;;;;;5050277;28;20036;-65
2022/04/05 01:23:28;;;;;;;10.10;1.70;;;7.00;99.90;;;;;;5033886;28;20546;-68
2022/04/05 01:25:53;;;;;;;7.00;1.50;;;6.80;99.90;;;;;;5061374;28;20215;-68
2022/04/05 01:28:20;;;;;;;7.43;1.80;;;7.10;99.90;;;;;;5032033;28;20041;-67
2022/04/05 01:30:45;;;;;;;8.40;1.50;;;7.10;99.90;;;;;;5045768;28;20033;-68
2022/04/05 01:33:11;;;;;;;7.30;1.38;;;6.90;99.90;;;;;;5066508;28;20025;-68
2022/04/05 01:35:36;;;;;;;5.13;1.55;;;7.00;99.90;;;;;;5049833;28;20383;-68
2022/04/05 01:38:03;;;;;;;13.85;1.88;;;6.80;99.90;;;;;;5050326;28;20045;-68
2022/04/05 01:40:29;;;;;;;8.23;1.55;;;6.90;99.90;;;;;;5049444;28;20041;-69
2022/04/05 01:42:55;;;;;;;7.13;1.38;;;7.00;99.90;;;;;;5053658;28;20044;-68
2022/04/05 01:45:20;;;;;;;6.93;1.73;;;6.90;99.90;;;;;;5051797;28;20029;-69
2022/04/05 01:47:46;;;;;;;9.70;1.83;;;7.00;99.90;;;;;;5051845;28;20052;-68
2022/04/05 01:50:12;;;;;;;13.07;2.17;;;6.70;99.90;;;;;;5065836;28;20037;-69
2022/04/05 01:52:37;;;;;;;6.88;1.92;;;6.70;99.90;;;;;;5061635;28;20049;-68
2022/04/05 01:55:05;;;;;;;7.20;1.88;;;6.70;99.90;;;;;;5060210;28;20037;-68
2022/04/05 01:57:31;;;;;;;10.38;1.92;;;6.80;99.90;;;;;;5045293;28;20480;-68
2022/04/05 01:59:56;;;;;;;9.93;2.10;;;6.90;99.90;;;;;;5049328;28;20033;-68
2022/04/05 02:02:22;;;;;;;9.20;1.95;;;7.00;99.90;;;;;;5053030;28;20574;-68
2022/04/05 02:04:48;;;;;;;10.35;1.55;;;6.90;99.90;;;;;;5048056;28;20171;-68
2022/04/05 02:07:15;;;;;;;7.55;1.40;;;6.80;99.90;;;;;;5065612;28;20119;-69
2022/04/05 02:09:42;;;;;;;7.53;2.00;;;6.70;99.90;;;;;;5069413;28;20415;-69
2022/04/05 02:12:09;;;;;;;10.88;2.08;;;6.90;99.90;;;;;;5058923;28;20506;-69
2022/04/05 02:14:35;;;;;;;8.98;1.73;;;6.70;99.90;;;;;;5042183;28;20045;-69
2022/04/05 02:17:01;;;;;;;8.38;1.70;;;6.90;99.90;;;;;;5055501;28;20044;-68
2022/04/05 02:19:27;;;;;;;14.18;2.03;;;6.70;99.90;;;;;;5045657;28;20044;-68
2022/04/05 02:21:52;;;;;;;13.30;2.10;;;6.90;99.90;;;;;;5049597;28;20033;-68
2022/04/05 02:24:18;;;;;;;11.40;1.85;;;6.80;99.90;;;;;;5044113;28;20089;-68
2022/04/05 02:26:43;;;;;;;7.25;1.55;;;6.90;99.90;;;;;;5040928;28;20414;-69
2022/04/05 02:29:09;;;;;;;8.80;1.80;;;6.80;99.90;;;;;;5044963;28;20033;-69
2022/04/05 02:31:35;;;;;;;6.22;1.58;;;6.90;99.90;;;;;;5064839;28;20415;-69
2022/04/05 02:34:00;;;;;;;9.57;2.08;;;6.70;99.90;;;;;;5063070;28;20112;-68
2022/04/05 02:36:26;;;;;;;8.48;1.40;;;6.90;99.90;;;;;;5048765;28;20044;-69
2022/04/05 02:38:52;;;;;;;12.82;2.40;;;6.80;99.90;;;;;;5048411;28;20037;-69
2022/04/05 02:41:17;;;;;;;7.13;1.70;;;6.80;99.90;;;;;;5049520;28;20044;-68
2022/04/05 02:43:43;;;;;;;8.63;1.75;;;6.60;99.90;;;;;;5049096;28;20044;-69
2022/04/05 02:46:11;;;;;;;10.77;2.22;;;6.50;99.90;;;;;;5036681;28;20050;-68
2022/04/05 02:48:43;;;;;;;15.63;2.60;;;6.60;99.90;;;;;;5043383;28;20041;-69
2022/04/05 02:51:12;;;;;;;9.85;2.20;;;6.70;99.90;;;;;;5032852;28;20086;-68
2022/04/05 02:53:37;;;;;;;13.18;2.75;;;6.50;99.90;;;;;;5048564;28;20500;-67
2022/04/05 02:56:03;;;;;;;17.10;3.20;;;6.60;99.90;;;;;;5031635;28;20051;-68
2022/04/05 02:58:29;;;;;;;12.80;2.83;;;6.80;99.90;;;;;;5032312;28;20098;-68
2022/04/05 03:00:54;;;;;;;14.65;2.78;;;6.50;99.90;;;;;;5032335;28;20080;-67
2022/04/05 03:03:20;;;;;;;11.27;3.17;;;6.80;99.90;;;;;;5047833;28;20028;-69
2022/04/05 03:05:45;;;;;;;18.63;3.08;;;6.50;99.90;;;;;;5048260;28;20056;-68
2022/04/05 03:08:11;;;;;;;15.45;3.00;;;6.80;99.90;;;;;;5048938;28;20131;-69
2022/04/05 03:10:36;;;;;;;10.93;3.17;;;6.70;99.90;;;;;;5062884;28;20110;-69
2022/04/05 03:13:03;;;;;;;14.77;2.95;;;6.50;99.90;;;;;;5048401;28;20051;-69
2022/04/05 03:15:29;;;;;;;14.57;3.22;;;6.70;99.90;;;;;;5049144;28;20053;-69
2022/04/05 03:17:55;;;;;;;13.38;3.25;;;6.40;99.90;;;;;;5032193;28;20499;-68
2022/04/05 03:20:21;;;;;;;12.43;3.15;;;6.70;99.90;;;;;;5058060;28;20047;-69
2022/04/05 03:22:46;;;;;;;14.15;3.85;;;6.50;99.90;;;;;;5053363;28;20046;-69
2022/04/05 03:25:12;;;;;;;12.20;3.08;;;6.40;99.90;;;;;;5054211;28;20028;-70
2022/04/05 03:27:42;;;;;;;13.02;3.28;;;6.70;99.90;;;;;;5048657;28;20506;-67
2022/04/05 03:30:10;;;;;;;17.17;3.47;;;6.70;99.90;;;;;;5065257;28;20114;-69
2022/04/05 03:32:36;;;;;;;16.20;3.03;;;6.80;99.90;;;;;;5052495;28;20124;-69
2022/04/05 03:35:02;;;;;;;10.70;3.10;;;6.70;99.90;;;;;;5052063;28;20424;-70
2022/04/05 03:37:27;;;;;;;13.50;2.60;;;6.80;99.90;;;;;;5043626;28;20443;-69
2022/04/05 03:39:53;;;;;;;15.23;3.63;;;6.80;99.90;;;;;;5052476;28;20094;-70
2022/04/05 03:42:19;;;;;;;11.52;3.60;;;6.60;99.90;;;;;;5038858;28;20029;-70
2022/04/05 03:44:44;;;;;;;18.13;4.05;;;6.60;99.90;;;;;;5062032;28;20552;-69
2022/04/05 03:47:10;;;;;;;18.80;4.57;;;6.50;99.90;;;;;;5048178;28;20124;-68
2022/04/05 03:49:35;;;;;;;16.17;4.50;;;6.80;99.90;;;;;;5064522;28;20040;-71
2022/04/05 03:52:01;;;;;;;23.88;5.13;;;6.50;99.90;;;;;;5047543;28;20426;-69
2022/04/05 03:54:26;;;;;;;27.73;5.45;;;6.80;99.90;;;;;;5040674;28;20478;-68
2022/04/05 03:56:51;;;;;;;25.30;5.22;;;6.90;99.90;;;;;;5050033;28;20045;-69
2022/04/05 03:59:17;;;;;;;30.25;5.82;;;6.60;99.90;;;;;;5033971;28;20472;-69
2022/04/05 04:01:43;;;;;;;25.48;6.05;;;6.70;99.90;;;;;;5064224;28;20143;-70
2022/04/05 04:04:08;;;;;;;24.08;5.68;;;6.60;99.90;;;;;;5047320;28;20440;-69
2022/04/05 04:06:34;;;;;;;21.20;4.60;;;6.90;99.90;;;;;;5052952;28;20037;-69
2022/04/05 04:08:59;;;;;;;19.10;5.30;;;7.00;99.90;;;;;;5048234;28;20060;-68
2022/04/05 04:11:25;;;;;;;25.33;5.78;;;6.70;99.90;;;;;;5051693;28;20097;-70
2022/04/05 04:13:50;;;;;;;24.23;6.20;;;7.00;99.90;;;;;;5065854;28;20136;-69
2022/04/05 04:16:16;;;;;;;19.40;4.72;;;7.00;99.90;;;;;;5028585;28;20455;-69
2022/04/05 04:18:41;;;;;;;20.95;4.68;;;7.00;99.90;;;;;;5035422;28;20052;-69
2022/04/05 04:21:07;;;;;;;23.77;5.35;;;7.00;99.90;;;;;;5050407;28;20037;-69
2022/04/05 04:23:32;;;;;;;21.60;5.82;;;6.70;99.90;;;;;;5039014;28;20091;-69
2022/04/05 04:25:58;;;;;;;24.05;5.28;;;6.70;99.90;;;;;;5050958;28;20037;-69
2022/04/05 04:28:23;;;;;;;22.85;5.50;;;7.00;99.90;;;;;;5050968;28;20040;-69
2022/04/05 04:30:49;;;;;;;28.13;5.35;;;6.70;99.90;;;;;;5051312;28;20550;-69
2022/04/05 04:33:15;;;;;;;21.20;5.60;;;6.90;99.90;;;;;;5059989;28;20030;-68
2022/04/05 04:35:42;;;;;;;21.75;5.82;;;6.60;99.90;;;;;;5067814;28;20083;-69
2022/04/05 04:38:08;;;;;;;25.20;6.03;;;6.60;99.90;;;;;;5032915;28;20045;-70
2022/04/05 04:40:34;;;;;;;20.83;5.40;;;6.90;99.90;;;;;;5046607;28;20333;-70
2022/04/05 04:43:00;;;;;;;24.17;5.72;;;6.60;99.90;;;;;;5048580;28;20041;-70
2022/04/05 04:45:28;;;;;;;27.83;6.18;;;6.80;99.90;;;;;;5050595;28;20202;-70
2022/04/05 04:47:54;;;;;;;24.98;5.15;;;6.90;99.90;;;;;;5049351;28;20044;-69
2022/04/05 04:50:20;;;;;;;26.70;5.43;;;6.90;99.90;;;;;;5059937;28;20132;-70
2022/04/05 04:52:46;;;;;;;25.92;5.45;;;6.90;99.90;;;;;;5050846;28;20128;-69
2022/04/05 04:55:11;;;;;;;25.70;5.30;;;6.60;99.90;;;;;;5050165;28;20033;-68
2022/04/05 04:57:37;;;;;;;19.65;4.63;;;6.90;99.90;;;;;;5049157;28;20094;-70
2022/04/05 05:00:05;;;;;;;22.25;5.20;;;6.60;99.90;;;;;;5052423;28;20119;-70
2022/04/05 05:02:30;;;;;;;18.88;5.25;;;6.90;99.90;;;;;;5038589;28;20087;-70
2022/04/05 05:04:56;;;;;;;27.02;4.70;;;6.50;99.90;;;;;;5033962;28;20436;-69
2022/04/05 05:07:21;;;;;;;22.40;4.75;;;6.90;99.90;;;;;;5050278;28;20087;-70
2022/04/05 05:09:47;;;;;;;26.25;5.13;;;6.50;99.90;;;;;;5038861;28;20040;-69
2022/04/05 05:12:12;;;;;;;25.73;4.75;;;6.80;99.90;;;;;;5065538;28;20037;-68
2022/04/05 05:14:39;;;;;;;22.20;4.18;;;6.50;99.90;;;;;;5056337;28;20400;-69
2022/04/05 05:17:05;;;;;;;14.88;3.92;;;6.80;99.90;;;;;;5024317;28;20080;-69
2022/04/05 05:19:31;;;;;;;24.92;4.38;;;6.60;99.90;;;;;;5044178;28;20463;-67
2022/04/05 05:21:57;;;;;;;18.73;3.53;;;6.80;99.90;;;;;;5017666;28;20041;-69
2022/04/05 05:24:22;;;;;;;19.27;4.07;;;6.50;99.90;;;;;;5036445;28;20396;-69
2022/04/05 05:26:48;;;;;;;18.33;3.70;;;6.60;99.90;;;;;;5049285;28;20044;-68
2022/04/05 05:29:15;;;;;;;21.30;4.10;;;6.50;99.90;;;;;;5048690;28;20040;-69
2022/04/05 05:31:41;;;;;;;13.40;3.40;;;6.50;99.90;;;;;;5049450;28;20138;-69
2022/04/05 05:34:06;;;;;;;12.30;2.70;;;6.80;99.90;;;;;;5033018;28;20178;-69
2022/04/05 05:36:32;;;;;;;13.63;3.10;;;6.80;99.90;;;;;;5030327;28;20042;-69
2022/04/05 05:38:58;;;;;;;12.85;2.83;;;6.80;99.90;;;;;;5049742;28;20041;-69
2022/04/05 05:41:23;;;;;;;14.50;2.05;;;6.60;99.90;;;;;;5049254;28;20045;-69
2022/04/05 05:43:49;;;;;;;10.73;1.90;;;6.50;99.90;;;;;;5064264;28;20039;-68
2022/04/05 05:46:15;;;;;;;12.80;2.25;;;6.60;99.90;;;;;;5044898;28;20033;-69
2022/04/05 05:48:41;;;;;;;5.55;1.60;;;6.50;99.90;;;;;;5040228;28;20046;-70
2022/04/05 05:51:07;;;;;;;12.45;2.13;;;6.60;99.90;;;;;;5061232;28;20541;-68
2022/04/05 05:53:33;;;;;;;10.65;1.90;;;6.50;99.90;;;;;;5055923;28;20041;-68
2022/04/05 05:55:59;;;;;;;9.43;1.77;;;6.60;99.90;;;;;;5057214;28;20119;-69
2022/04/05 05:58:25;;;;;;;5.97;1.60;;;6.80;99.90;;;;;;5049303;28;20124;-68
2022/04/05 06:00:51;;;;;;;8.82;1.90;;;6.80;99.90;;;;;;5026996;28;20045;-69
2022/04/05 06:03:17;;;;;;;10.45;2.00;;;6.80;99.90;;;;;;5049769;28;20037;-69
2022/04/05 06:05:43;;;;;;;8.43;1.73;;;6.50;99.90;;;;;;5048965;28;20072;-69
2022/04/05 06:08:09;;;;;;;8.80;1.50;;;6.50;99.90;;;;;;5032964;28;20064;-69
2022/04/05 06:10:35;;;;;;;8.73;1.90;;;6.60;99.90;;;;;;5044240;28;20076;-69
2022/04/05 06:13:01;;;;;;;10.27;1.65;;;6.50;99.90;;;;;;5049241;28;20072;-69
2022/04/05 06:15:28;;;;;;;5.95;1.30;;;6.50;99.90;;;;;;5049406;28;20428;-70
2022/04/05 06:17:54;;;;;;;7.38;1.58;;;6.80;99.90;;;;;;5030179;28;20041;-70
2022/04/05 06:20:22;;;;;;;9.15;1.60;;;6.80;99.90;;;;;;5030106;28;20037;-69
2022/04/05 06:22:53;;;;;;;10.73;2.15;;;6.60;99.90;;;;;;5046223;28;20033;-69
2022/04/05 06:25:21;;;;;;;10.52;1.65;;;6.50;99.90;;;;;;5053832;28;20077;-70
2022/04/05 06:27:47;;;;;;;8.25;1.40;;;6.70;99.90;;;;;;5066938;28;20124;-69
2022/04/05 06:30:15;;;;;;;7.00;1.50;;;6.80;99.90;;;;;;5065242;28;20045;-69
2022/04/05 06:32:41;;;;;;;10.70;1.80;;;6.90;99.90;;;;;;5030829;28;20094;-69
2022/04/05 06:35:08;;;;;;;7.38;1.70;;;6.60;99.90;;;;;;5053577;28;20131;-69
2022/04/05 06:37:35;;;;;;;8.88;2.33;;;6.60;99.90;;;;;;5047323;28;20132;-69
2022/04/05 06:40:02;;;;;;;7.75;1.83;;;7.00;99.90;;;;;;5052502;28;20139;-69
2022/04/05 06:42:29;;;;;;;6.85;2.53;;;7.00;99.90;;;;;;5042544;28;20102;-69
2022/04/05 06:44:54;;;;;;;14.32;2.50;;;6.90;99.90;;;;;;5047978;28;20036;-69
2022/04/05 06:47:20;;;;;;;9.98;2.60;;;7.00;99.90;;;;;;5060032;28;20044;-70
2022/04/05 06:49:46;;;;;;;8.38;2.30;;;6.80;99.90;;;;;;5040748;28;20245;-69
2022/04/05 06:52:11;;;;;;;12.00;2.50;;;6.80;99.90;;;;;;5045378;28;20492;-69
2022/04/05 06:54:37;;;;;;;6.13;1.20;;;7.10;99.90;;;;;;5056438;28;20049;-69
2022/04/05 06:57:03;;;;;;;5.47;1.40;;;7.00;99.90;;;;;;5058337;28;20029;-69
2022/04/05 06:59:29;;;;;;;12.48;1.50;;;7.00;99.90;;;;;;5047160;28;20037;-69
2022/04/05 07:01:54;;;;;;;5.32;1.20;;;6.90;99.90;;;;;;5053553;28;20087;-69
2022/04/05 07:04:20;;;;;;;7.60;1.35;;;6.70;99.90;;;;;;5048433;28;20037;-69
2022/04/05 07:06:45;;;;;;;5.50;1.25;;;7.00;99.90;;;;;;5063146;28;20063;-69
2022/04/05 07:09:11;;;;;;;6.82;1.38;;;7.00;99.90;;;;;;5051828;28;20503;-70
2022/04/05 07:11:37;;;;;;;9.15;1.38;;;7.00;99.90;;;;;;5047580;28;20087;-69
2022/04/05 07:14:02;;;;;;;9.88;1.40;;;6.80;99.90;;;;;;5061196;28;20511;-69
2022/04/05 07:16:28;;;;;;;6.25;1.30;;;6.90;99.90;;;;;;5039772;28;20045;-70
2022/04/05 07:18:54;;;;;;;4.68;1.35;;;7.10;99.90;;;;;;5054574;28;20033;-69
2022/04/05 07:21:20;;;;;;;6.20;1.52;;;7.10;99.90;;;;;;5053351;28;20044;-70
2022/04/05 07:23:47;;;;;;;11.68;1.80;;;7.10;99.90;;;;;;5049411;28;20040;-69
2022/04/05 07:26:12;;;;;;;7.65;1.52;;;7.00;99.90;;;;;;5060347;28;20117;-70
2022/04/05 07:28:38;;;;;;;6.03;1.33;;;7.00;99.90;;;;;;5049229;28;20132;-69
2022/04/05 07:31:04;;;;;;;9.63;1.75;;;7.10;99.90;;;;;;5062241;28;20038;-69
2022/04/05 07:33:30;;;;;;;5.90;1.60;;;7.10;99.90;;;;;;5034921;28;20826;-70
2022/04/05 07:35:56;;;;;;;6.50;1.60;;;7.10;99.90;;;;;;5035181;28;20041;-70
2022/04/05 07:38:21;;;;;;;7.85;1.60;;;6.90;99.90;;;;;;5050530;28;20044;-69
2022/04/05 07:40:50;;;;;;;4.78;1.77;;;6.90;99.90;;;;;;5053609;28;20029;-70
2022/04/05 07:43:23;;;;;;;8.45;1.90;;;7.30;99.90;;;;;;5051278;28;20064;-70
2022/04/05 07:45:49;;;;;;;7.57;2.20;;;7.10;99.90;;;;;;5052331;28;20041;-70
2022/04/05 07:48:17;;;;;;;7.60;2.20;;;7.20;99.90;;;;;;5035409;28;20067;-70
2022/04/05 07:50:43;;;;;;;6.00;2.50;;;7.50;99.90;;;;;;5048902;28;20047;-70
2022/04/05 07:53:08;;;;;;;9.48;2.55;;;7.10;99.90;;;;;;5051980;28;20454;-70
2022/04/05 07:55:34;;;;;;;7.30;3.40;;;7.50;99.90;;;;;;5051607;28;20049;-70
2022/04/05 07:57:59;;;;;;;9.05;2.78;;;7.30;99.90;;;;;;5069229;28;20045;-70
2022/04/05 08:00:26;;;;;;;7.05;2.38;;;7.50;99.90;;;;;;5056928;28;20725;-69
2022/04/05 08:02:52;;;;;;;8.82;2.60;;;7.40;99.90;;;;;;5048904;28;20080;-69
2022/04/05 08:05:18;;;;;;;12.60;3.90;;;7.30;99.90;;;;;;5050379;28;20029;-69
2022/04/05 08:07:44;;;;;;;9.82;3.28;;;7.30;99.90;;;;;;5050659;28;20437;-69
2022/04/05 08:10:10;;;;;;;8.30;3.50;;;7.30;99.90;;;;;;5049382;28;20035;-69
2022/04/05 08:12:43;;;;;;;8.18;3.40;;;7.30;99.90;;;;;;5050625;28;20037;-69
2022/04/05 08:15:13;;;;;;;12.95;2.90;;;7.60;99.90;;;;;;5052122;28;20049;-68
2022/04/05 08:17:39;;;;;;;7.65;2.08;;;7.50;99.90;;;;;;5056251;28;20040;-68
2022/04/05 08:20:05;;;;;;;7.88;2.50;;;7.30;99.90;;;;;;5050272;28;20032;-68
2022/04/05 08:22:31;;;;;;;7.15;3.15;;;7.50;99.90;;;;;;5054716;28;20037;-68
2022/04/05 08:24:57;;;;;;;6.03;2.13;;;7.80;99.90;;;;;;5031809;28;20045;-67
2022/04/05 08:27:23;;;;;;;6.40;2.58;;;7.80;99.90;;;;;;5046405;28;20556;-68
2022/04/05 08:29:48;;;;;;;9.23;3.40;;;7.60;99.90;;;;;;5067000;28;20045;-68
2022/04/05 08:32:14;;;;;;;7.82;3.38;;;7.50;99.90;;;;;;5060128;28;20041;-68
2022/04/05 08:34:41;;;;;;;10.18;3.92;;;7.60;99.90;;;;;;5048953;28;20037;-69
2022/04/05 08:37:11;;;;;;;6.53;2.50;;;7.80;99.90;;;;;;5057887;28;20052;-69
2022/04/05 08:39:37;;;;;;;6.45;2.35;;;7.80;99.90;;;;;;5056235;28;20420;-68
2022/04/05 08:42:05;;;;;;;6.13;2.30;;;8.10;99.90;;;;;;5065744;28;20041;-69
2022/04/05 08:44:30;;;;;;;8.80;4.15;;;8.10;99.90;;;;;;5054602;28;20068;-69
2022/04/05 08:47:01;;;;;;;11.00;5.63;;;7.90;99.90;;;;;;5030445;28;20037;-68
2022/04/05 08:49:31;;;;;;;13.10;5.78;;;8.20;99.90;;;;;;5048550;28;20045;-69
2022/04/05 08:51:57;;;;;;;16.40;6.00;;;8.50;99.90;;;;;;5064249;28;20043;-69
2022/04/05 08:54:23;;;;;;;12.00;4.60;;;8.50;99.90;;;;;;5051205;28;20044;-69
2022/04/05 08:56:50;;;;;;;12.85;4.53;;;8.60;99.90;;;;;;5034264;28;20041;-69
2022/04/05 08:59:16;;;;;;;10.30;4.22;;;8.50;99.90;;;;;;5047573;28;20064;-69
2022/04/05 09:01:42;;;;;;;10.32;3.70;;;8.40;99.90;;;;;;5036520;28;20484;-69
2022/04/05 09:04:10;;;;;;;13.90;4.80;;;8.60;99.90;;;;;;5059575;28;20046;-69
2022/04/05 09:06:36;;;;;;;9.90;3.83;;;8.30;99.90;;;;;;5045213;28;20503;-69
2022/04/05 09:09:13;;;;;;;14.30;5.15;;;8.60;99.90;;;;;;5045140;28;20399;-68
2022/04/05 09:11:50;;;;;;;13.93;4.53;;;8.70;99.90;;;;;;5048091;28;20044;-70
2022/04/05 09:14:42;;;;;;;13.45;4.47;;;8.70;99.90;;;;;;5044240;28;20036;-70
2022/04/05 09:17:14;;;;;;;10.75;4.38;;;8.80;99.90;;;;;;5045495;28;20084;-69
2022/04/05 09:19:42;;;;;;;14.10;4.35;;;8.90;99.90;;;;;;5050208;28;20045;-70
2022/04/05 09:22:08;;;;;;;15.25;5.05;;;8.80;99.90;;;;;;5050024;28;20466;-69
2022/04/05 09:24:35;;;;;;;11.15;3.88;;;8.80;99.90;;;;;;5066996;28;20069;-70
2022/04/05 09:27:01;;;;;;;12.85;4.55;;;9.10;99.90;;;;;;5050449;28;20037;-71
2022/04/05 09:29:41;;;;;;;13.77;5.00;;;9.00;99.90;;;;;;5037153;28;20111;-69
2022/04/05 09:32:07;;;;;;;18.48;5.88;;;8.90;99.90;;;;;;5031462;28;20060;-69
2022/04/05 09:34:33;;;;;;;21.42;6.35;;;9.30;99.90;;;;;;5061698;28;20110;-70
2022/04/05 09:37:08;;;;;;;22.45;6.40;;;9.30;99.90;;;;;;5064733;28;20455;-70
2022/04/05 09:39:33;;;;;;;20.30;7.07;;;9.20;99.90;;;;;;5048945;28;20041;-71
2022/04/05 09:42:02;;;;;;;23.15;7.13;;;9.10;99.90;;;;;;5057022;28;20048;-71
2022/04/05 09:44:32;;;;;;;22.00;7.60;;;9.50;99.90;;;;;;5054607;28;20045;-70
2022/04/05 09:47:08;;;;;;;25.48;7.95;;;9.20;99.90;;;;;;5062100;28;20094;-70
2022/04/05 09:49:38;;;;;;;28.45;8.07;;;9.50;99.90;;;;;;5050421;28;20041;-71
2022/04/05 09:52:33;;;;;;;32.70;8.95;;;9.50;99.90;;;;;;5066236;28;20040;-70
2022/04/05 09:55:09;;;;;;;30.35;9.48;;;9.40;99.90;;;;;;5020526;28;20551;-71
2022/04/05 09:57:36;;;;;;;32.35;9.63;;;9.40;99.90;;;;;;5062778;28;20059;-70
2022/04/05 10:00:13;;;;;;;32.45;10.68;;;9.40;99.90;;;;;;5049548;28;20041;-70
2022/04/05 10:02:59;;;;;;;35.13;11.10;;;9.60;99.90;;;;;;5032846;28;20048;-70
2022/04/05 10:05:25;;;;;;;38.33;12.73;;;9.40;99.90;;;;;;5049106;28;20442;-69
2022/04/05 10:07:51;;;;;;;37.28;12.77;;;9.10;99.90;;;;;;5049962;28;20053;-69
2022/04/05 10:10:17;;;;;;;32.80;11.80;;;9.50;99.90;;;;;;5039218;28;20052;-69
2022/04/05 10:12:43;;;;;;;40.90;12.23;;;9.30;99.90;;;;;;5049691;28;20106;-70
2022/04/05 10:15:09;;;;;;;29.70;9.02;;;9.40;99.90;;;;;;5049934;28;20041;-69
2022/04/05 10:17:36;;;;;;;28.73;9.93;;;9.50;99.90;;;;;;5063760;28;20049;-68
2022/04/05 10:20:02;;;;;;;19.08;6.30;;;9.90;99.90;;;;;;5047435;28;20037;-68
2022/04/05 10:22:28;;;;;;;15.82;6.15;;;9.60;99.90;;;;;;5049631;28;20558;-68
2022/04/05 10:24:55;;;;;;;15.75;5.82;;;9.90;99.90;;;;;;5048233;28;20124;-68
2022/04/05 10:27:22;;;;;;;9.90;4.35;;;9.90;99.90;;;;;;5048436;28;20044;-66
2022/04/05 10:30:03;;;;;;;15.27;5.20;;;9.90;99.90;;;;;;5048532;28;20037;-68
2022/04/05 10:33:06;;;;;;;13.63;5.15;;;9.70;99.90;;;;;;5049134;28;20037;-69
2022/04/05 10:35:41;;;;;;;12.27;4.88;;;10.00;99.90;;;;;;5044543;28;20380;-67
2022/04/05 10:38:11;;;;;;;14.10;5.35;;;10.10;99.90;;;;;;5045091;28;20480;-69
2022/04/05 10:40:37;;;;;;;14.18;4.97;;;10.00;99.90;;;;;;5048764;28;20037;-69
2022/04/05 10:43:16;;;;;;;16.33;4.07;;;10.40;99.90;;;;;;5049415;28;20044;-66
2022/04/05 10:45:45;;;;;;;10.13;4.28;;;10.10;99.90;;;;;;5059068;28;20361;-69
2022/04/05 10:48:20;;;;;;;9.48;2.85;;;10.10;99.90;;;;;;5042482;28;20366;-69
2022/04/05 10:51:01;;;;;;;15.55;5.05;;;10.30;99.90;;;;;;5042432;28;20048;-66
2022/04/05 10:53:38;;;;;;;17.65;4.75;;;10.20;99.90;;;;;;5053454;28;20094;-66
2022/04/05 10:56:03;;;;;;;11.98;4.53;;;10.40;99.90;;;;;;5056768;28;20060;-67
2022/04/05 10:58:33;;;;;;;13.43;5.03;;;10.20;99.90;;;;;;5055268;28;20040;-71
2022/04/05 11:01:12;;;;;;;12.35;4.95;;;10.40;99.90;;;;;;5056585;28;20561;-68
2022/04/05 11:03:38;;;;;;;18.33;6.47;;;10.40;99.90;;;;;;5047636;28;20037;-66
2022/04/05 11:06:04;;;;;;;21.63;7.28;;;10.40;99.90;;;;;;5035442;28;20103;-68
2022/04/05 11:08:31;;;;;;;19.27;6.18;;;10.60;99.90;;;;;;5040780;28;20045;-70
2022/04/05 11:11:00;;;;;;;19.02;6.15;;;10.70;99.90;;;;;;5053668;28;20045;-68
2022/04/05 11:13:34;;;;;;;21.70;7.07;;;10.80;99.90;;;;;;5041756;28;20081;-67
2022/04/05 11:16:01;;;;;;;20.75;7.43;;;10.80;99.90;;;;;;5072945;28;20433;-70
2022/04/05 11:18:35;;;;;;;17.23;6.65;;;10.80;99.90;;;;;;5054173;28;20052;-66
2022/04/05 11:21:06;;;;;;;18.30;5.68;;;11.00;99.90;;;;;;5062183;28;20037;-68
2022/04/05 11:23:45;;;;;;;25.52;7.40;;;10.80;99.90;;;;;;5059137;28;20046;-70
2022/04/05 11:26:28;;;;;;;24.60;5.90;;;10.90;99.90;;;;;;5036785;28;20493;-71
2022/04/05 11:28:55;;;;;;;25.42;8.45;;;10.70;99.90;;;;;;5034349;28;20037;-66
2022/04/05 11:31:33;;;;;;;23.10;7.50;;;10.80;99.90;;;;;;5035319;28;20099;-69
2022/04/05 11:33:59;;;;;;;31.13;9.43;;;10.80;99.90;;;;;;5059487;28;20411;-69
2022/04/05 11:36:25;;;;;;;26.35;8.75;;;10.90;99.90;;;;;;5063467;28;20037;-71
2022/04/05 11:38:58;;;;;;;18.80;5.30;;;11.00;99.90;;;;;;5060254;28;20052;-70
2022/04/05 11:41:27;;;;;;;22.08;7.28;;;10.90;99.90;;;;;;5055683;28;20439;-69
2022/04/05 11:44:05;;;;;;;23.65;8.05;;;11.20;99.90;;;;;;5039585;28;20090;-69
2022/04/05 11:46:35;;;;;;;29.77;7.93;;;11.40;99.90;;;;;;5072058;28;20549;-71
2022/04/05 11:49:04;;;;;;;21.63;5.40;;;11.00;99.90;;;;;;5054809;28;20098;-71
2022/04/05 11:51:35;;;;;;;23.83;7.70;;;11.10;99.90;;;;;;5056516;28;20044;-67
2022/04/05 11:54:24;;;;;;;29.20;6.65;;;10.90;99.90;;;;;;5056486;28;20041;-70
2022/04/05 11:56:50;;;;;;;19.55;6.28;;;10.80;99.90;;;;;;5055988;28;20051;-68
2022/04/05 11:59:18;;;;;;;30.60;7.60;;;10.80;99.90;;;;;;5056079;28;20041;-71
2022/04/05 12:01:49;;;;;;;24.48;6.95;;;10.80;99.90;;;;;;5070585;28;20484;-69
2022/04/05 12:04:17;;;;;;;23.30;7.60;;;10.80;99.90;;;;;;5045040;28;20041;-68
2022/04/05 12:06:47;;;;;;;34.70;9.45;;;10.50;99.90;;;;;;5052984;28;20539;-70
2022/04/05 12:09:16;;;;;;;20.85;6.68;;;10.50;99.90;;;;;;5052308;28;20118;-66
2022/04/05 12:11:45;;;;;;;22.20;7.38;;;10.50;99.90;;;;;;5044550;28;20459;-72
2022/04/05 12:14:13;;;;;;;35.70;9.45;;;10.70;99.90;;;;;;5034373;28;20258;-72
2022/04/05 12:16:49;;;;;;;24.40;7.05;;;10.90;99.90;;;;;;5063288;28;20041;-69
2022/04/05 12:19:22;;;;;;;18.95;5.07;;;10.70;99.90;;;;;;5045960;28;20034;-68
2022/04/05 12:21:52;;;;;;;18.90;5.75;;;10.90;99.90;;;;;;5052547;28;20039;-70
2022/04/05 12:24:17;;;;;;;20.92;6.47;;;11.00;99.90;;;;;;5051161;28;20043;-70
2022/04/05 12:26:43;;;;;;;24.92;7.28;;;10.70;99.90;;;;;;5068232;28;20040;-70
2022/04/05 12:29:08;;;;;;;28.15;9.05;;;10.80;99.90;;;;;;5052481;28;20045;-74
2022/04/05 12:31:34;;;;;;;31.75;10.35;;;11.00;99.90;;;;;;5046751;28;20037;-68
2022/04/05 12:34:03;;;;;;;35.15;11.45;;;10.90;99.90;;;;;;5036107;28;20048;-70
2022/04/05 12:36:38;;;;;;;34.58;8.90;;;10.80;99.90;;;;;;5069060;28;20050;-74
2022/04/05 12:39:25;;;;;;;27.73;8.55;;;10.80;99.90;;;;;;5057539;28;20033;-70
2022/04/05 12:41:53;;;;;;;46.35;12.80;;;10.50;99.90;;;;;;5021964;28;20056;-73
2022/04/05 12:44:21;;;;;;;37.35;10.45;;;10.70;99.90;;;;;;5052347;28;20477;-72
2022/04/05 12:46:54;;;;;;;32.17;8.38;;;10.70;99.90;;;;;;5050792;28;20047;-72
2022/04/05 12:49:31;;;;;;;34.38;8.73;;;10.60;99.90;;;;;;5056764;28;20066;-69